Time;durP1;ratioP1;P1;durP2;ratioP2;P2;SDS_P1;SDS_P2;PMS_P1;PMS_P2;Temp;Humidity;BMP_temperature;BMP_pressure;BME280_temperature;BME280_humidity;BME280_pressure;Samples;Min_cycle;Max_cycle;Signal;HPM_P1;HPM_P2
2022/01/13 00:00:59;;;;;;;125.05;21.40;;;;;;;0.94;100.00;104130.88;5005503;28;20476;-72
2022/01/13 00:03:24;;;;;;;133.57;24.98;;;;;;;1.02;100.00;104126.59;5000445;28;20053;-72
2022/01/13 00:05:49;;;;;;;137.90;25.17;;;;;;;1.01;100.00;104123.91;5004260;28;20082;-72
2022/01/13 00:08:15;;;;;;;100.32;22.15;;;;;;;1.08;100.00;104135.47;5001048;28;20066;-72
2022/01/13 00:10:40;;;;;;;98.68;20.10;;;;;;;1.09;100.00;104131.94;5001350;28;20169;-72
2022/01/13 00:13:08;;;;;;;150.73;27.48;;;;;;;1.25;100.00;104151.59;5004144;28;20042;-72
2022/01/13 00:15:46;;;;;;;103.05;24.25;;;;;;;1.20;100.00;104149.78;5001663;28;20026;-73
2022/01/13 00:18:15;;;;;;;145.75;27.17;;;;;;;1.07;100.00;104147.81;4997802;28;20088;-73
2022/01/13 00:23:45;;;;;;;147.65;29.75;;;;;;;0.88;100.00;104130.75;5001103;28;20030;-72
2022/01/13 00:26:20;;;;;;;121.57;22.67;;;;;;;0.73;100.00;104132.31;5001551;28;20377;-73
2022/01/13 00:28:48;;;;;;;141.48;23.77;;;;;;;0.77;100.00;104130.59;5001505;28;20030;-73
2022/01/13 00:31:17;;;;;;;156.88;24.88;;;;;;;0.67;100.00;104113.69;5003601;28;20021;-73
2022/01/13 00:33:45;;;;;;;100.53;19.00;;;;;;;0.74;100.00;104125.25;5002364;28;20030;-72
2022/01/13 00:36:11;;;;;;;132.32;22.02;;;;;;;0.79;100.00;104120.94;4985125;28;20248;-72
2022/01/13 00:38:36;;;;;;;137.45;23.98;;;;;;;0.66;100.00;104111.03;5009125;28;20037;-72
2022/01/13 00:41:02;;;;;;;176.90;27.17;;;;;;;0.76;100.00;104120.00;5000422;28;20328;-73
2022/01/13 00:43:27;;;;;;;164.75;25.85;;;;;;;0.68;100.00;104109.25;5006201;28;20465;-72
2022/01/13 00:45:53;;;;;;;166.43;26.73;;;;;;;0.82;100.00;104122.72;5002933;28;20140;-72
2022/01/13 00:48:19;;;;;;;119.80;22.60;;;;;;;0.83;100.00;104120.13;5004260;28;20934;-72
2022/01/13 00:50:45;;;;;;;164.18;27.80;;;;;;;0.87;100.00;104116.66;4998558;28;20045;-73
2022/01/13 00:53:10;;;;;;;171.23;28.45;;;;;;;0.83;100.00;104116.56;5003421;28;20049;-72
2022/01/13 00:55:48;;;;;;;226.40;33.80;;;;;;;0.87;100.00;104108.72;5001579;28;20347;-72
2022/01/13 00:58:14;;;;;;;151.50;27.70;;;;;;;0.79;100.00;104102.41;4999513;28;20127;-72
2022/01/13 01:00:40;;;;;;;161.80;25.00;;;;;;;0.82;100.00;104105.09;4987107;28;20092;-72
2022/01/13 01:03:07;;;;;;;199.52;27.15;;;;;;;0.66;100.00;104093.38;5021364;28;20484;-72
2022/01/13 01:05:34;;;;;;;150.38;22.38;;;;;;;0.77;100.00;104112.06;5004899;28;20035;-72
2022/01/13 01:07:59;;;;;;;175.55;27.38;;;;;;;0.76;100.00;104105.00;5005280;28;20080;-72
2022/01/13 01:10:24;;;;;;;229.95;30.95;;;;;;;0.69;100.00;104101.38;5002677;28;20029;-73
2022/01/13 01:12:50;;;;;;;196.60;28.83;;;;;;;0.69;100.00;104106.66;5006111;28;20030;-73
2022/01/13 01:15:15;;;;;;;176.45;24.08;;;;;;;0.71;100.00;104102.28;5005592;28;20041;-73
2022/01/13 01:17:47;;;;;;;174.75;25.80;;;;;;;0.67;100.00;104089.88;5003756;28;20029;-73
2022/01/13 01:20:13;;;;;;;221.60;28.98;;;;;;;0.71;100.00;104107.59;5005168;28;20029;-73
2022/01/13 01:22:56;;;;;;;159.20;24.58;;;;;;;0.69;100.00;104109.31;5003002;28;20037;-73
2022/01/13 01:27:56;;;;;;;145.32;22.52;;;;;;;0.76;100.00;104118.22;5007710;28;20034;-72
2022/01/13 01:30:29;;;;;;;173.68;26.85;;;;;;;0.80;100.00;104114.78;5006796;28;20033;-72
2022/01/13 01:32:54;;;;;;;193.65;26.65;;;;;;;0.78;100.00;104124.44;5006090;28;20033;-73
2022/01/13 01:35:24;;;;;;;145.15;20.63;;;;;;;0.78;100.00;104102.41;5005860;28;20574;-73
2022/01/13 01:37:49;;;;;;;101.25;17.98;;;;;;;0.85;100.00;104121.03;5006358;28;20124;-72
2022/01/13 01:40:15;;;;;;;89.88;16.75;;;;;;;0.96;100.00;104110.63;5002140;28;20424;-73
2022/01/13 01:42:40;;;;;;;135.15;23.02;;;;;;;0.87;100.00;104102.53;5003728;28;20428;-73
2022/01/13 01:45:07;;;;;;;140.60;23.05;;;;;;;0.75;100.00;104111.16;5006544;28;20040;-73
2022/01/13 01:47:33;;;;;;;152.38;23.20;;;;;;;0.77;100.00;104105.91;5004646;28;20033;-72
2022/01/13 01:50:09;;;;;;;92.05;18.95;;;;;;;0.72;100.00;104112.00;5005189;28;20017;-73
2022/01/13 01:52:35;;;;;;;156.48;23.55;;;;;;;0.76;100.00;104093.53;5004570;28;20030;-72
2022/01/13 01:55:00;;;;;;;211.10;30.02;;;;;;;0.69;100.00;104103.09;5005759;28;20030;-73
2022/01/13 01:57:26;;;;;;;185.10;25.98;;;;;;;0.65;100.00;104096.03;5003856;28;20033;-72
2022/01/13 01:59:51;;;;;;;142.57;22.13;;;;;;;0.75;100.00;104111.16;5003156;28;20037;-72
2022/01/13 02:02:17;;;;;;;114.53;19.90;;;;;;;0.69;100.00;104104.03;4988301;28;20618;-72
2022/01/13 02:04:43;;;;;;;178.85;29.17;;;;;;;0.67;100.00;104108.38;5005842;28;20036;-73
2022/01/13 02:07:09;;;;;;;162.88;24.45;;;;;;;0.50;100.00;104091.38;5004499;28;20029;-73
2022/01/13 02:09:37;;;;;;;83.82;16.95;;;;;;;0.65;100.00;104093.38;5004615;28;20041;-72
2022/01/13 02:12:10;;;;;;;103.45;20.45;;;;;;;0.71;100.00;104109.31;5004842;28;20547;-72
2022/01/13 02:14:49;;;;;;;108.63;20.42;;;;;;;0.76;100.00;104104.13;5000554;28;20025;-72
2022/01/13 02:17:22;;;;;;;151.20;23.65;;;;;;;0.53;100.00;104102.00;5004984;28;20037;-73
2022/01/13 02:19:48;;;;;;;128.30;21.27;;;;;;;0.54;100.00;104116.97;5004911;28;20321;-72
2022/01/13 02:22:13;;;;;;;126.30;23.05;;;;;;;0.48;100.00;104104.53;4986013;28;20030;-73
2022/01/13 02:24:39;;;;;;;162.18;23.48;;;;;;;0.55;100.00;104122.31;5005501;28;20566;-72
2022/01/13 02:27:06;;;;;;;148.57;25.20;;;;;;;0.54;100.00;104115.22;4988276;28;20493;-72
2022/01/13 02:29:32;;;;;;;145.57;22.73;;;;;;;0.59;100.00;104113.56;5004829;28;20037;-73
2022/01/13 02:31:57;;;;;;;138.77;21.70;;;;;;;0.51;100.00;104109.88;5003281;28;20389;-72
2022/01/13 02:34:23;;;;;;;124.85;21.77;;;;;;;0.72;100.00;104111.09;5003456;28;20518;-73
2022/01/13 02:36:50;;;;;;;83.45;15.50;;;;;;;0.71;100.00;104118.16;5001710;28;20503;-73
2022/01/13 02:39:15;;;;;;;107.60;19.73;;;;;;;0.63;100.00;104117.13;5002400;28;20045;-73
2022/01/13 02:41:41;;;;;;;124.93;20.13;;;;;;;0.63;100.00;104105.69;5003496;28;20352;-72
2022/01/13 02:44:14;;;;;;;125.03;20.48;;;;;;;0.53;100.00;104108.16;5002291;28;20419;-73
2022/01/13 02:49:07;;;;;;;91.22;17.00;;;;;;;0.68;100.00;104118.09;5000852;28;20796;-72
2022/01/13 02:51:33;;;;;;;106.18;19.05;;;;;;;0.62;100.00;104115.34;4998289;28;20144;-73
2022/01/13 02:53:58;;;;;;;105.00;19.98;;;;;;;0.62;100.00;104118.00;5001851;28;20042;-72
2022/01/13 02:56:24;;;;;;;105.38;19.65;;;;;;;0.69;100.00;104114.59;5002829;28;20027;-72
2022/01/13 02:58:49;;;;;;;77.70;15.98;;;;;;;0.72;100.00;104100.53;5001966;28;20476;-72
2022/01/13 03:01:15;;;;;;;107.43;19.10;;;;;;;0.68;100.00;104103.97;5004096;28;20034;-72
2022/01/13 03:03:41;;;;;;;97.82;17.38;;;;;;;0.70;100.00;104113.72;5004573;28;20037;-72
2022/01/13 03:06:08;;;;;;;97.53;16.77;;;;;;;0.64;100.00;104110.97;5002756;28;20021;-72
2022/01/13 03:08:33;;;;;;;95.15;17.55;;;;;;;0.62;100.00;104103.91;5004683;28;20141;-72
2022/01/13 03:10:59;;;;;;;84.63;17.13;;;;;;;0.64;100.00;104100.41;5006142;28;20120;-72
2022/01/13 03:13:27;;;;;;;156.63;23.10;;;;;;;0.79;100.00;104097.13;5005211;28;20041;-72
2022/01/13 03:15:53;;;;;;;110.13;21.05;;;;;;;0.59;100.00;104084.47;5003825;28;20037;-72
2022/01/13 03:18:18;;;;;;;125.13;21.15;;;;;;;0.57;100.00;104077.34;5004158;28;20040;-72
2022/01/13 03:20:43;;;;;;;121.35;22.02;;;;;;;0.63;100.00;104074.81;5003492;28;20388;-73
2022/01/13 03:23:10;;;;;;;107.25;20.30;;;;;;;0.74;100.00;104085.56;5001443;28;20091;-73
2022/01/13 03:25:35;;;;;;;114.03;19.60;;;;;;;0.57;100.00;104070.34;5004862;28;20034;-72
2022/01/13 03:28:05;;;;;;;123.38;19.60;;;;;;;0.56;100.00;104084.41;5005340;28;20034;-72
2022/01/13 03:30:32;;;;;;;161.48;22.63;;;;;;;0.57;100.00;104088.84;5005001;28;20469;-72
2022/01/13 03:32:57;;;;;;;127.93;21.38;;;;;;;0.59;100.00;104084.47;5005282;28;20538;-72
2022/01/13 03:35:22;;;;;;;162.18;23.48;;;;;;;0.76;100.00;104077.66;5003314;28;20029;-73
2022/01/13 03:37:48;;;;;;;155.55;22.85;;;;;;;0.68;100.00;104066.94;5003806;28;20026;-73
2022/01/13 03:40:13;;;;;;;156.90;24.52;;;;;;;0.66;100.00;104081.94;5002007;28;20033;-73
2022/01/13 03:42:39;;;;;;;131.50;18.95;;;;;;;0.54;100.00;104070.28;5005516;28;20041;-73
2022/01/13 03:45:05;;;;;;;197.85;25.15;;;;;;;0.98;100.00;104077.13;4994475;28;20384;-72
2022/01/13 03:47:30;;;;;;;369.05;43.92;;;;;;;1.01;100.00;104071.88;4988945;28;20029;-73
2022/01/13 03:49:55;;;;;;;278.60;42.08;;;;;;;0.80;100.00;104067.16;4985074;28;20022;-74
2022/01/13 03:52:23;;;;;;;102.85;18.00;;;;;;;0.55;100.00;104081.72;4988353;28;20366;-73
2022/01/13 03:55:23;;;;;;;112.88;17.65;;;;;;;0.46;100.00;104085.13;5002105;28;20067;-72
2022/01/13 03:58:13;;;;;;;86.63;15.20;;;;;;;0.32;100.00;104089.28;4979756;28;20040;-72
2022/01/13 04:00:56;;;;;;;157.63;21.80;;;;;;;0.51;100.00;104087.84;5003741;28;20029;-73
2022/01/13 04:03:22;;;;;;;95.28;15.52;;;;;;;0.43;100.00;104087.69;4997071;28;20040;-73
2022/01/13 04:06:11;;;;;;;131.32;20.98;;;;;;;0.36;100.00;104068.22;4986566;28;20022;-72
2022/01/13 04:08:36;;;;;;;129.77;20.70;;;;;;;0.37;100.00;104059.41;5004981;28;20045;-73
2022/01/13 04:11:05;;;;;;;138.25;19.73;;;;;;;0.46;100.00;104071.88;5001061;28;20392;-72
2022/01/13 04:16:21;;;;;;;116.90;18.52;;;;;;;0.48;100.00;104066.66;5001406;28;20041;-72
2022/01/13 04:18:48;;;;;;;319.63;36.53;;;;;;;0.66;100.00;104066.06;5020044;28;20033;-72
2022/01/13 04:21:14;;;;;;;409.55;40.88;;;;;;;0.91;100.00;104067.31;5002012;28;20042;-73
2022/01/13 04:23:39;;;;;;;370.40;42.95;;;;;;;0.88;100.00;104061.97;4986246;28;20021;-73
2022/01/13 04:26:06;;;;;;;337.15;38.70;;;;;;;0.62;100.00;104057.16;4999773;28;20029;-73
2022/01/13 04:28:35;;;;;;;283.05;30.20;;;;;;;0.55;100.00;104045.63;5005558;28;20536;-73
2022/01/13 04:31:01;;;;;;;366.80;44.05;;;;;;;0.70;100.00;104059.94;5007633;28;20077;-73
2022/01/13 04:33:31;;;;;;;342.15;37.65;;;;;;;0.81;100.00;104055.69;5003505;28;20523;-73
2022/01/13 04:35:57;;;;;;;330.50;38.72;;;;;;;0.71;100.00;104070.56;5005756;28;20164;-73
2022/01/13 04:38:23;;;;;;;123.15;16.85;;;;;;;0.38;100.00;104063.84;5005389;28;20824;-72
2022/01/13 04:40:55;;;;;;;273.30;38.58;;;;;;;0.48;100.00;104050.78;5009810;28;20484;-73
2022/01/13 04:43:20;;;;;;;151.10;21.90;;;;;;;0.36;100.00;104057.63;5005645;28;20022;-72
2022/01/13 04:45:46;;;;;;;230.18;29.27;;;;;;;0.55;100.00;104048.25;4992678;28;20443;-72
2022/01/13 04:48:11;;;;;;;261.98;34.85;;;;;;;0.45;100.00;104043.66;5005604;28;20025;-73
2022/01/13 04:50:36;;;;;;;215.30;29.88;;;;;;;0.43;100.00;104053.34;4990118;28;20053;-72
2022/01/13 04:53:02;;;;;;;105.55;17.02;;;;;;;0.37;100.00;104046.19;5009051;28;20381;-73
2022/01/13 04:55:32;;;;;;;233.30;30.95;;;;;;;0.57;100.00;104046.53;5005189;28;20056;-73
2022/01/13 04:57:59;;;;;;;173.43;22.30;;;;;;;0.30;100.00;104044.31;4985706;28;20034;-72
2022/01/13 05:00:26;;;;;;;130.32;19.33;;;;;;;0.23;100.00;104040.69;5003807;28;20065;-72
2022/01/13 05:02:51;;;;;;;98.18;17.20;;;;;;;0.31;100.00;104064.59;4990061;28;20030;-72
2022/01/13 05:05:17;;;;;;;142.15;20.90;;;;;;;0.52;100.00;104073.78;5006664;28;20037;-72
2022/01/13 05:07:42;;;;;;;211.73;29.38;;;;;;;0.57;100.00;104058.84;4989731;28;20022;-73
2022/01/13 05:10:08;;;;;;;286.80;36.40;;;;;;;0.76;100.00;104078.53;4988186;28;20023;-72
2022/01/13 05:12:41;;;;;;;95.25;14.10;;;;;;;0.31;100.00;104061.94;5002322;28;20280;-72
2022/01/13 05:15:08;;;;;;;93.85;14.88;;;;;;;0.33;100.00;104067.28;5004221;28;20125;-72
2022/01/13 05:18:03;;;;;;;107.63;16.92;;;;;;;0.35;100.00;104078.78;5006465;28;20103;-72
2022/01/13 05:20:38;;;;;;;;;;;;;;;0.38;100.00;104081.47;5006706;28;20040;-72
2022/01/13 05:23:05;;;;;;;105.80;15.82;;;;;;;0.33;100.00;104067.28;5006848;28;19917;-72
2022/01/13 05:25:30;;;;;;;139.02;22.92;;;;;;;0.43;100.00;104070.09;5003638;28;20432;-73
2022/01/13 05:27:56;;;;;;;115.57;16.40;;;;;;;0.43;100.00;104063.91;5005196;28;20030;-72
2022/01/13 05:30:21;;;;;;;111.50;15.10;;;;;;;0.40;100.00;104053.28;4986924;28;20046;-72
2022/01/13 05:32:46;;;;;;;106.38;14.50;;;;;;;0.46;100.00;104076.31;5005965;28;20064;-72
2022/01/13 05:35:13;;;;;;;93.18;14.77;;;;;;;0.46;100.00;104074.53;5005449;28;20033;-72
2022/01/13 05:37:38;;;;;;;107.55;15.13;;;;;;;0.48;100.00;104064.88;5004902;28;21764;-72
2022/01/13 05:40:04;;;;;;;91.72;15.85;;;;;;;0.55;100.00;104066.75;5000557;28;20036;-72
2022/01/13 05:42:29;;;;;;;123.43;17.67;;;;;;;0.50;100.00;104060.50;5005851;28;20111;-72
2022/01/13 05:44:56;;;;;;;198.32;26.73;;;;;;;0.64;100.00;104058.09;5005224;28;20377;-72
2022/01/13 05:47:21;;;;;;;130.85;17.55;;;;;;;0.40;100.00;104034.78;5003797;28;20117;-73
2022/01/13 05:49:47;;;;;;;172.38;22.77;;;;;;;0.84;100.00;104039.88;4996755;28;20067;-72
2022/01/13 05:52:13;;;;;;;241.98;25.35;;;;;;;0.72;100.00;104052.91;5004625;28;20117;-72
2022/01/13 05:54:39;;;;;;;253.65;30.33;;;;;;;1.02;100.00;104051.59;5000176;28;20061;-70
2022/01/13 05:57:05;;;;;;;200.45;23.70;;;;;;;0.95;100.00;104060.28;5009265;28;20029;-72
2022/01/13 05:59:30;;;;;;;110.93;17.27;;;;;;;0.83;100.00;104058.34;5002997;28;20025;-71
2022/01/13 06:01:56;;;;;;;195.10;22.80;;;;;;;0.71;100.00;104073.19;5004956;28;20034;-72
2022/01/13 06:04:21;;;;;;;145.30;20.90;;;;;;;0.59;100.00;104067.69;5006330;28;20065;-70
2022/01/13 06:06:46;;;;;;;167.25;20.70;;;;;;;0.53;100.00;104068.50;5006822;28;20032;-70
2022/01/13 06:09:12;;;;;;;138.25;19.80;;;;;;;0.63;100.00;104071.31;5004747;28;20053;-69
2022/01/13 06:11:39;;;;;;;253.15;29.13;;;;;;;0.76;100.00;104073.25;5007944;28;20033;-67
2022/01/13 06:14:05;;;;;;;170.52;22.08;;;;;;;0.62;100.00;104073.03;5006933;28;20425;-69
2022/01/13 06:16:30;;;;;;;211.93;23.30;;;;;;;0.58;100.00;104076.50;5002724;28;20030;-69
2022/01/13 06:18:56;;;;;;;267.55;29.65;;;;;;;0.55;100.00;104063.22;5008532;28;20513;-69
2022/01/13 06:21:21;;;;;;;209.43;24.65;;;;;;;0.59;100.00;104062.41;5004355;28;20468;-69
2022/01/13 06:23:46;;;;;;;192.88;25.23;;;;;;;0.48;100.00;104059.59;5005557;28;20542;-69
2022/01/13 06:26:12;;;;;;;223.10;23.63;;;;;;;0.49;100.00;104053.44;5005436;28;20374;-69
2022/01/13 06:28:37;;;;;;;285.58;29.95;;;;;;;0.61;100.00;104071.25;5008132;28;20038;-69
2022/01/13 06:31:02;;;;;;;436.17;41.63;;;;;;;0.66;100.00;104051.06;5005861;28;20129;-70
2022/01/13 06:33:28;;;;;;;214.93;22.80;;;;;;;0.52;100.00;104050.84;5008405;28;20380;-70
2022/01/13 06:35:54;;;;;;;236.95;26.85;;;;;;;0.65;100.00;104054.56;5002244;28;20388;-70
2022/01/13 06:38:19;;;;;;;172.00;21.60;;;;;;;0.51;100.00;104038.50;5008005;28;20108;-70
2022/01/13 06:40:45;;;;;;;257.80;26.90;;;;;;;0.67;100.00;104041.38;5005422;28;20071;-69
2022/01/13 06:43:10;;;;;;;163.05;21.13;;;;;;;0.55;100.00;104052.63;5012593;28;20065;-69
2022/01/13 06:45:36;;;;;;;205.70;26.65;;;;;;;0.56;100.00;104054.41;4998799;28;20428;-69
2022/01/13 06:48:01;;;;;;;146.85;17.38;;;;;;;0.58;100.00;104052.69;5009027;28;20381;-69
2022/01/13 06:50:27;;;;;;;246.00;27.50;;;;;;;0.55;100.00;104035.03;4987722;28;20425;-69
2022/01/13 06:52:52;;;;;;;197.65;23.20;;;;;;;0.58;100.00;104035.09;4986308;28;20032;-69
2022/01/13 06:55:17;;;;;;;176.75;20.33;;;;;;;0.52;100.00;104037.63;4989966;28;20034;-69
2022/01/13 06:57:43;;;;;;;189.32;24.15;;;;;;;0.52;100.00;104049.97;5003958;28;20483;-69
2022/01/13 07:00:08;;;;;;;132.13;19.35;;;;;;;0.62;100.00;104061.59;5003421;28;20179;-68
2022/01/13 07:02:34;;;;;;;189.98;21.00;;;;;;;0.61;100.00;104067.75;5002955;28;20029;-69
2022/01/13 07:05:00;;;;;;;198.45;21.65;;;;;;;0.57;100.00;104057.09;5006415;28;20036;-69
2022/01/13 07:07:26;;;;;;;241.77;24.65;;;;;;;0.61;100.00;104065.09;5008705;28;20030;-69
2022/01/13 07:09:51;;;;;;;153.90;20.25;;;;;;;0.47;100.00;104054.28;5002695;28;20033;-69
2022/01/13 07:12:16;;;;;;;251.45;26.48;;;;;;;0.62;100.00;104056.28;5004268;28;20053;-69
2022/01/13 07:14:42;;;;;;;248.48;24.10;;;;;;;0.49;100.00;104056.09;5003334;28;20164;-69
2022/01/13 07:17:07;;;;;;;233.77;25.67;;;;;;;0.59;100.00;104054.47;5002975;28;20030;-69
2022/01/13 07:19:32;;;;;;;223.68;21.83;;;;;;;0.47;100.00;104035.78;5006328;28;20452;-69
2022/01/13 07:21:58;;;;;;;249.90;26.40;;;;;;;0.54;100.00;104048.22;5003744;28;20038;-69
2022/01/13 07:24:23;;;;;;;214.88;23.63;;;;;;;0.55;100.00;104053.53;5006341;28;20029;-67
2022/01/13 07:26:49;;;;;;;195.95;22.15;;;;;;;0.59;100.00;104057.13;5005702;28;20037;-70
2022/01/13 07:29:14;;;;;;;180.57;18.30;;;;;;;0.59;100.00;104057.13;5006825;28;20044;-69
2022/01/13 07:31:39;;;;;;;167.45;18.52;;;;;;;0.65;100.00;104061.63;4990137;28;20473;-69
2022/01/13 07:34:06;;;;;;;196.73;22.85;;;;;;;0.63;100.00;104048.38;5012520;28;20057;-69
2022/01/13 07:36:31;;;;;;;179.00;20.90;;;;;;;0.66;100.00;104061.66;5002016;28;20030;-69
2022/01/13 07:38:57;;;;;;;187.75;22.42;;;;;;;0.62;100.00;104062.47;5011455;28;20385;-69
2022/01/13 07:41:22;;;;;;;210.77;23.48;;;;;;;0.71;100.00;104064.34;5005016;28;20029;-69
2022/01/13 07:43:53;;;;;;;150.40;18.83;;;;;;;0.64;100.00;104057.22;5010006;28;20026;-69
2022/01/13 07:46:19;;;;;;;259.08;25.67;;;;;;;0.61;100.00;104055.38;5002768;28;20444;-69
2022/01/13 07:48:44;;;;;;;180.30;22.95;;;;;;;0.62;100.00;104065.09;5006903;28;20026;-69
2022/01/13 07:51:09;;;;;;;141.48;17.02;;;;;;;0.69;100.00;104066.09;5001180;28;20029;-69
2022/01/13 07:53:35;;;;;;;220.88;23.33;;;;;;;0.68;100.00;104056.38;4997781;28;20538;-70
2022/01/13 07:56:00;;;;;;;159.40;18.52;;;;;;;0.74;100.00;104062.66;5006436;28;20033;-69
2022/01/13 07:58:26;;;;;;;185.02;21.58;;;;;;;0.86;100.00;104066.34;5006956;28;20511;-69
2022/01/13 08:00:52;;;;;;;173.65;20.85;;;;;;;0.80;100.00;104067.16;5007639;28;20108;-69
2022/01/13 08:03:17;;;;;;;139.13;16.80;;;;;;;0.85;100.00;104081.34;5005164;28;20038;-69
2022/01/13 08:05:42;;;;;;;154.10;19.52;;;;;;;0.79;100.00;104078.59;5013105;28;20044;-69
2022/01/13 08:08:09;;;;;;;144.45;15.70;;;;;;;0.77;100.00;104088.25;5003098;28;20080;-69
2022/01/13 08:10:34;;;;;;;151.18;18.00;;;;;;;0.82;100.00;104083.94;5007351;28;20068;-69
2022/01/13 08:13:00;;;;;;;131.50;15.43;;;;;;;0.84;100.00;104087.50;5010505;28;20033;-69
2022/01/13 08:15:26;;;;;;;101.53;14.50;;;;;;;0.91;100.00;104096.41;5009013;28;20445;-68
2022/01/13 08:20:35;;;;;;;143.23;18.17;;;;;;;0.88;100.00;104091.97;5009282;28;20136;-69
2022/01/13 08:23:01;;;;;;;96.60;13.55;;;;;;;0.86;100.00;104082.22;5008883;28;20046;-69
2022/01/13 08:25:27;;;;;;;106.85;15.20;;;;;;;0.93;100.00;104085.88;5011181;28;20258;-69
2022/01/13 08:27:53;;;;;;;140.32;17.58;;;;;;;0.83;100.00;104100.69;5009446;28;20467;-68
2022/01/13 08:30:19;;;;;;;168.57;21.02;;;;;;;0.90;100.00;104105.22;5014410;28;20037;-69
2022/01/13 08:32:44;;;;;;;168.15;23.42;;;;;;;0.74;100.00;104072.34;5008872;28;20056;-70
2022/01/13 08:35:10;;;;;;;137.35;17.33;;;;;;;0.80;100.00;104093.59;5013729;28;20384;-70
2022/01/13 08:37:36;;;;;;;206.52;22.25;;;;;;;0.83;100.00;104098.94;5014513;28;20026;-70
2022/01/13 08:40:05;;;;;;;134.23;17.85;;;;;;;0.86;100.00;104106.94;5008888;28;20033;-69
2022/01/13 08:42:33;;;;;;;151.18;19.40;;;;;;;0.83;100.00;104091.00;5011435;28;20423;-69
2022/01/13 08:44:59;;;;;;;202.18;23.75;;;;;;;0.85;100.00;104104.25;5009322;28;20034;-69
2022/01/13 08:47:24;;;;;;;169.18;19.95;;;;;;;0.89;100.00;104104.34;5009829;28;20083;-69
2022/01/13 08:49:50;;;;;;;153.88;19.10;;;;;;;0.90;100.00;104107.88;5006946;28;20151;-69
2022/01/13 08:52:15;;;;;;;166.48;21.35;;;;;;;0.90;100.00;104115.81;5011509;28;20033;-70
2022/01/13 08:54:45;;;;;;;174.05;23.25;;;;;;;0.82;100.00;104109.50;5007091;28;20129;-68
2022/01/13 08:57:11;;;;;;;163.52;23.40;;;;;;;0.87;100.00;104111.38;5008855;28;20037;-68
2022/01/13 08:59:36;;;;;;;197.70;24.45;;;;;;;0.89;100.00;104101.69;5008244;28;20033;-69
2022/01/13 09:02:01;;;;;;;139.15;19.13;;;;;;;0.85;100.00;104107.81;5003791;28;20025;-69
2022/01/13 09:04:27;;;;;;;164.02;20.95;;;;;;;0.88;100.00;104102.56;5005626;28;20614;-69
2022/01/13 09:06:52;;;;;;;170.85;21.17;;;;;;;0.89;100.00;104107.00;5002697;28;20038;-69
2022/01/13 09:09:17;;;;;;;116.97;16.17;;;;;;;0.91;100.00;104098.19;5008947;28;20503;-69
2022/01/13 09:11:43;;;;;;;166.32;22.00;;;;;;;0.88;100.00;104093.72;5007510;28;20079;-70
2022/01/13 09:14:08;;;;;;;118.88;17.50;;;;;;;1.02;100.00;104109.81;5009690;28;20379;-69
2022/01/13 09:16:41;;;;;;;158.13;21.20;;;;;;;0.99;100.00;104110.66;5006742;28;20384;-69
2022/01/13 09:19:12;;;;;;;103.20;14.70;;;;;;;1.09;100.00;104114.31;5010603;28;20025;-69
2022/01/13 09:21:39;;;;;;;98.57;14.98;;;;;;;1.14;100.00;104109.09;5004991;28;20026;-69
2022/01/13 09:24:07;;;;;;;125.32;20.00;;;;;;;1.27;100.00;104111.06;5005159;28;20061;-70
2022/01/13 09:26:32;;;;;;;122.07;16.88;;;;;;;1.24;100.00;104105.72;5004801;28;21719;-69
2022/01/13 09:28:57;;;;;;;108.75;14.75;;;;;;;1.14;100.00;104110.00;5004924;28;20033;-69
2022/01/13 09:31:22;;;;;;;123.22;17.27;;;;;;;1.22;100.00;104103.91;5006290;28;20112;-69
2022/01/13 09:33:48;;;;;;;107.07;16.23;;;;;;;1.23;100.00;104109.25;5011069;28;20564;-69
2022/01/13 09:36:13;;;;;;;134.60;17.70;;;;;;;0.71;100.00;104046.75;5008568;28;20570;-69
2022/01/13 09:38:39;;;;;;;117.47;15.95;;;;;;;1.12;100.00;104109.09;5007583;28;20033;-70
2022/01/13 09:41:04;;;;;;;122.70;16.65;;;;;;;1.23;100.00;104114.53;5012321;28;20462;-71
2022/01/13 09:43:30;;;;;;;119.10;15.95;;;;;;;1.12;100.00;104119.69;5005963;28;20469;-69
2022/01/13 09:45:57;;;;;;;151.88;21.45;;;;;;;1.11;100.00;104117.91;5006191;28;20037;-70
2022/01/13 09:48:23;;;;;;;103.50;15.90;;;;;;;1.18;100.00;104105.63;5003937;28;20068;-70
2022/01/13 09:50:48;;;;;;;138.23;19.48;;;;;;;1.22;100.00;104117.13;5014233;28;20038;-71
2022/01/13 09:53:15;;;;;;;132.77;18.60;;;;;;;1.25;100.00;104122.47;5004656;28;20433;-71
2022/01/13 09:55:41;;;;;;;144.02;19.50;;;;;;;1.32;100.00;104122.63;5007239;28;20037;-71
2022/01/13 09:58:10;;;;;;;133.10;19.20;;;;;;;1.27;100.00;104129.59;5004781;28;20041;-70
2022/01/13 10:00:37;;;;;;;138.02;20.00;;;;;;;1.20;100.00;104120.66;5014731;28;20026;-69
2022/01/13 10:03:16;;;;;;;123.80;14.70;;;;;;;1.37;100.00;104135.00;5003702;28;20033;-69
2022/01/13 10:05:50;;;;;;;150.68;18.70;;;;;;;1.33;100.00;104123.50;5012598;28;20038;-69
2022/01/13 10:08:15;;;;;;;122.60;15.50;;;;;;;1.40;100.00;104122.72;5005423;28;20261;-69
2022/01/13 10:10:41;;;;;;;124.10;16.88;;;;;;;1.39;100.00;104120.94;5007969;28;20116;-69
2022/01/13 10:13:10;;;;;;;118.22;16.10;;;;;;;1.58;100.00;104119.44;4999777;28;20487;-69
2022/01/13 10:18:41;;;;;;;147.27;19.75;;;;;;;1.54;100.00;104117.59;5000924;28;20052;-69
2022/01/13 10:21:12;;;;;;;139.48;18.23;;;;;;;1.59;100.00;104117.66;5005386;28;20048;-69
2022/01/13 10:23:37;;;;;;;148.95;19.35;;;;;;;1.41;100.00;104116.56;5005460;28;20076;-69
2022/01/13 10:26:10;;;;;;;163.90;21.52;;;;;;;1.40;100.00;104121.81;5006063;28;20591;-69
2022/01/13 10:28:36;;;;;;;149.07;20.17;;;;;;;1.52;100.00;104110.50;5004028;28;20460;-69
2022/01/13 10:31:01;;;;;;;164.98;23.60;;;;;;;1.52;100.00;104105.19;5005118;28;20251;-70
2022/01/13 10:33:29;;;;;;;157.88;21.17;;;;;;;1.54;100.00;104101.72;5005836;28;20036;-69
2022/01/13 10:36:06;;;;;;;102.00;15.07;;;;;;;1.58;100.00;104102.63;5007017;28;20045;-69
2022/01/13 10:38:53;;;;;;;100.10;15.43;;;;;;;1.69;100.00;104106.31;5005188;28;20278;-69
2022/01/13 10:41:29;;;;;;;155.20;20.08;;;;;;;1.60;100.00;104107.06;5013588;28;20434;-69
2022/01/13 10:44:13;;;;;;;227.52;30.20;;;;;;;1.98;100.00;104104.84;5004175;28;20384;-69
2022/01/13 10:47:02;;;;;;;177.65;20.58;;;;;;;1.65;100.00;104102.72;5011716;28;20036;-69
2022/01/13 10:49:35;;;;;;;73.13;11.93;;;;;;;1.81;100.00;104100.28;5003259;28;20526;-69
2022/01/13 10:52:26;;;;;;;131.18;17.30;;;;;;;1.83;100.00;104100.28;5007334;28;20040;-69
2022/01/13 10:54:59;;;;;;;106.72;15.88;;;;;;;1.93;100.00;104096.88;5006570;28;20052;-69
2022/01/13 10:57:25;;;;;;;65.65;12.45;;;;;;;1.77;100.00;104083.44;5005998;28;20040;-69
2022/01/13 10:59:51;;;;;;;99.60;15.15;;;;;;;1.90;100.00;104095.06;5006896;28;20029;-69
2022/01/13 11:02:21;;;;;;;125.85;19.38;;;;;;;1.82;100.00;104080.84;5003913;28;20128;-70
2022/01/13 11:04:47;;;;;;;78.80;14.38;;;;;;;1.84;100.00;104083.50;5005701;28;20049;-72
2022/01/13 11:07:21;;;;;;;119.35;16.27;;;;;;;1.92;100.00;104081.84;5004329;28;20432;-70
2022/01/13 11:09:55;;;;;;;142.65;19.77;;;;;;;1.91;100.00;104082.72;4997564;28;20408;-71
2022/01/13 11:12:56;;;;;;;145.90;17.80;;;;;;;1.94;100.00;104074.78;4998767;28;20468;-71
2022/01/13 11:15:24;;;;;;;127.38;18.48;;;;;;;1.93;100.00;104067.72;4990622;28;20046;-70
2022/01/13 11:17:49;;;;;;;170.23;21.35;;;;;;;2.01;100.00;104079.25;5008019;28;20053;-70
2022/01/13 11:20:20;;;;;;;160.80;23.65;;;;;;;2.01;100.00;104075.75;5000524;28;20125;-72